createdAt,value
2023-08-19T00:00:27.256Z,84.39
2023-08-19T00:01:00.416Z,84.37
2023-08-19T00:01:35.333Z,84.24
2023-08-19T00:02:08.051Z,84.23
2023-08-19T00:02:40.667Z,84.27
2023-08-19T00:03:13.239Z,84.26
2023-08-19T00:03:45.897Z,84.24
2023-08-19T00:04:18.440Z,84.16
2023-08-19T00:04:50.959Z,84.25
2023-08-19T00:05:23.455Z,84.28
2023-08-19T00:05:55.937Z,84.27
2023-08-19T00:06:37.764Z,84.36
2023-08-19T00:07:10.265Z,84.56
2023-08-19T00:07:42.759Z,84.53
2023-08-19T00:08:15.242Z,84.61
2023-08-19T00:08:47.744Z,84.58
2023-08-19T00:09:20.231Z,84.55
2023-08-19T00:09:52.704Z,84.47
2023-08-19T00:10:25.259Z,84.59
2023-08-19T00:10:57.773Z,84.65
2023-08-19T00:11:30.676Z,84.58
2023-08-19T00:12:03.971Z,84.52
2023-08-19T00:12:36.508Z,84.54
2023-08-19T00:13:09.098Z,84.63
2023-08-19T00:13:41.599Z,84.73
2023-08-19T00:14:14.181Z,84.74
2023-08-19T00:14:48.911Z,84.70
2023-08-19T00:15:21.432Z,84.74
2023-08-19T00:15:54.134Z,84.78
2023-08-19T00:16:26.655Z,84.82
2023-08-19T00:16:59.338Z,84.78
2023-08-19T00:17:32.119Z,84.70
2023-08-19T00:18:05.442Z,84.62
2023-08-19T00:18:37.986Z,84.64
2023-08-19T00:19:10.610Z,84.65
2023-08-19T00:19:43.178Z,84.62
2023-08-19T00:20:15.686Z,84.73
2023-08-19T00:20:48.800Z,84.71
2023-08-19T00:21:21.390Z,84.66
2023-08-19T00:21:53.899Z,84.64
2023-08-19T00:22:26.378Z,84.58
2023-08-19T00:22:59.339Z,84.65
2023-08-19T00:23:32.201Z,84.64
2023-08-19T00:24:05.095Z,84.59
2023-08-19T00:24:37.608Z,84.58
2023-08-19T00:25:10.409Z,84.60
2023-08-19T00:25:42.990Z,84.57
2023-08-19T00:26:15.749Z,84.66
2023-08-19T00:26:48.262Z,84.73
2023-08-19T00:27:20.778Z,84.68
2023-08-19T00:27:54.091Z,84.72
2023-08-19T00:28:26.809Z,84.70
2023-08-19T00:28:59.424Z,84.71
2023-08-19T00:29:31.963Z,84.65
2023-08-19T00:30:04.646Z,84.72
2023-08-19T00:30:37.178Z,84.79
2023-08-19T00:31:10.295Z,84.78
2023-08-19T00:31:43.302Z,84.90
2023-08-19T00:32:16.549Z,84.83
2023-08-19T00:32:49.181Z,84.74
2023-08-19T00:33:24.393Z,84.85
2023-08-19T00:33:56.877Z,84.86
2023-08-19T00:34:29.412Z,84.86
2023-08-19T00:35:01.950Z,84.94
2023-08-19T00:35:34.827Z,84.92
2023-08-19T00:36:07.342Z,84.84
2023-08-19T00:36:39.880Z,84.86
2023-08-19T00:37:12.403Z,84.76
2023-08-19T00:37:44.893Z,84.91
2023-08-19T00:38:17.380Z,85.25
2023-08-19T00:38:52.933Z,85.53
2023-08-19T00:39:25.493Z,85.46
2023-08-19T00:39:58.002Z,85.54
2023-08-19T00:40:30.497Z,85.55
2023-08-19T00:41:04.410Z,85.42
2023-08-19T00:41:37.013Z,85.49
2023-08-19T00:42:10.001Z,85.54
2023-08-19T00:42:42.709Z,85.60
2023-08-19T00:43:15.188Z,85.61
2023-08-19T00:43:47.682Z,85.55
2023-08-19T00:44:20.296Z,85.54
2023-08-19T00:44:53.984Z,85.54
2023-08-19T00:45:26.604Z,85.44
2023-08-19T00:45:59.472Z,85.41
2023-08-19T00:46:33.301Z,85.40
2023-08-19T00:47:06.109Z,85.33
2023-08-19T00:47:40.394Z,85.33
2023-08-19T00:48:17.719Z,85.32
2023-08-19T00:48:50.289Z,85.42
2023-08-19T00:49:22.873Z,85.53
2023-08-19T00:49:56.159Z,85.54
2023-08-19T00:50:28.893Z,85.55
2023-08-19T00:51:03.790Z,85.61
2023-08-19T00:51:36.390Z,85.46
2023-08-19T00:52:09.525Z,85.37
2023-08-19T00:52:43.228Z,85.32
2023-08-19T00:53:16.485Z,85.31
2023-08-19T00:53:49.471Z,85.35
2023-08-19T00:54:22.043Z,85.34
2023-08-19T00:54:54.573Z,85.33
2023-08-19T00:55:27.201Z,85.39
2023-08-19T00:56:00.031Z,85.49
2023-08-19T00:56:32.734Z,85.57
2023-08-19T00:57:05.486Z,85.60
2023-08-19T00:57:39.013Z,85.54
2023-08-19T00:58:12.701Z,85.60
2023-08-19T00:58:45.845Z,85.58
2023-08-19T00:59:18.598Z,85.56
2023-08-19T00:59:51.167Z,85.53
2023-08-19T01:00:23.833Z,85.56
2023-08-19T01:00:56.444Z,85.54
2023-08-19T01:01:29.043Z,85.56
2023-08-19T01:02:01.621Z,85.60
2023-08-19T01:02:34.252Z,85.63
2023-08-19T01:03:07.541Z,85.63
2023-08-19T01:03:40.421Z,85.57
2023-08-19T01:04:13.184Z,85.57
2023-08-19T01:04:46.014Z,85.61
2023-08-19T01:05:22.333Z,85.64
2023-08-19T01:06:09.870Z,85.67
2023-08-19T01:06:57.345Z,85.66
2023-08-19T01:07:38.738Z,85.71
2023-08-19T01:08:18.538Z,85.71
2023-08-19T01:09:05.277Z,85.75
2023-08-19T01:09:43.860Z,85.73
2023-08-19T01:10:36.362Z,85.74
2023-08-19T01:11:37.181Z,85.68
2023-08-19T01:12:47.705Z,85.68
2023-08-19T01:13:27.252Z,85.74
2023-08-19T01:14:16.420Z,85.70
2023-08-19T01:15:02.325Z,85.70
2023-08-19T01:15:42.765Z,85.63
2023-08-19T01:16:28.125Z,85.59
2023-08-19T01:17:05.046Z,85.53
2023-08-19T01:17:38.912Z,85.50
2023-08-19T01:18:12.678Z,85.41
2023-08-19T01:18:45.647Z,85.38
2023-08-19T01:19:29.204Z,85.31
2023-08-19T01:20:01.782Z,85.33
2023-08-19T01:20:36.051Z,85.33
2023-08-19T01:21:10.014Z,85.33
2023-08-19T01:21:42.564Z,85.32
2023-08-19T01:22:22.502Z,85.33
2023-08-19T01:23:01.952Z,85.47
2023-08-19T01:23:39.275Z,85.48
2023-08-19T01:24:12.851Z,85.43
2023-08-19T01:24:47.667Z,85.42
2023-08-19T01:25:21.331Z,85.42
2023-08-19T01:25:54.536Z,85.51
2023-08-19T01:26:27.097Z,85.58
2023-08-19T01:26:59.629Z,85.61
2023-08-19T01:27:32.378Z,85.60
2023-08-19T01:28:05.289Z,85.57
2023-08-19T01:28:37.786Z,85.54
2023-08-19T01:29:10.852Z,85.50
2023-08-19T01:29:43.365Z,85.51
2023-08-19T01:30:16.091Z,85.48
2023-08-19T01:30:48.628Z,85.53
2023-08-19T01:31:21.229Z,85.57
2023-08-19T01:31:54.190Z,85.58
2023-08-19T01:32:27.004Z,85.55
2023-08-19T01:32:59.578Z,85.55
2023-08-19T01:33:33.114Z,85.47
2023-08-19T01:34:05.766Z,85.41
2023-08-19T01:34:38.503Z,85.43
2023-08-19T01:35:15.498Z,85.51
2023-08-19T01:36:17.062Z,85.44
2023-08-19T01:36:56.797Z,85.32
2023-08-19T01:37:38.727Z,85.25
2023-08-19T01:38:30.543Z,85.33
2023-08-19T01:39:07.592Z,85.32
2023-08-19T01:39:44.012Z,85.25
2023-08-19T01:40:16.982Z,85.19
2023-08-19T01:40:51.605Z,85.23
2023-08-19T01:41:27.881Z,85.27
2023-08-19T01:42:00.802Z,85.23
2023-08-19T01:42:34.081Z,85.35
2023-08-19T01:43:11.669Z,85.37
2023-08-19T01:43:45.588Z,85.28
2023-08-19T01:44:19.032Z,85.33
2023-08-19T01:44:52.276Z,85.38
2023-08-19T01:45:25.150Z,85.41
2023-08-19T01:45:57.805Z,85.49
2023-08-19T01:46:30.642Z,85.66
2023-08-19T01:47:17.433Z,85.70
2023-08-19T01:47:57.422Z,85.78
2023-08-19T01:48:29.999Z,85.78
2023-08-19T01:49:02.647Z,85.75
2023-08-19T01:49:35.140Z,85.73
2023-08-19T01:50:09.147Z,85.81
2023-08-19T01:50:41.636Z,85.92
2023-08-19T01:51:14.166Z,86.02
2023-08-19T01:51:46.685Z,86.02
2023-08-19T01:52:20.236Z,86.08
2023-08-19T01:52:52.883Z,86.06
2023-08-19T01:53:25.459Z,86.00
2023-08-19T01:53:57.997Z,86.01
2023-08-19T01:54:30.500Z,86.02
2023-08-19T01:55:02.989Z,86.01
2023-08-19T01:55:35.496Z,86.04
2023-08-19T01:56:07.997Z,86.09
2023-08-19T01:56:40.667Z,86.14
2023-08-19T01:57:13.230Z,86.16
2023-08-19T01:57:45.780Z,86.23
2023-08-19T01:58:18.328Z,86.29
2023-08-19T01:58:50.840Z,86.30
2023-08-19T01:59:23.391Z,86.26
2023-08-19T01:59:56.297Z,86.26
2023-08-19T02:00:29.442Z,86.33
2023-08-19T02:01:01.979Z,86.31
2023-08-19T02:01:34.576Z,86.19
2023-08-19T02:02:07.139Z,86.12
2023-08-19T02:02:39.688Z,86.02
2023-08-19T02:03:12.247Z,86.06
2023-08-19T02:03:44.836Z,86.13
2023-08-19T02:04:18.616Z,86.10
2023-08-19T02:04:51.678Z,85.98
2023-08-19T02:05:24.260Z,86.08
2023-08-19T02:05:56.774Z,86.10
2023-08-19T02:06:30.956Z,85.95
2023-08-19T02:07:03.507Z,86.14
2023-08-19T02:07:36.020Z,86.24
2023-08-19T02:08:08.504Z,86.16
2023-08-19T02:08:40.993Z,86.22
2023-08-19T02:09:13.560Z,86.24
2023-08-19T02:09:46.873Z,86.17
2023-08-19T02:10:19.371Z,86.02
2023-08-19T02:10:51.912Z,86.13
2023-08-19T02:11:24.458Z,86.30
2023-08-19T02:11:57.758Z,86.31
2023-08-19T02:12:30.284Z,86.35
2023-08-19T02:13:03.696Z,86.39
2023-08-19T02:13:36.249Z,86.41
2023-08-19T02:14:09.673Z,86.32
2023-08-19T02:14:42.175Z,86.19
2023-08-19T02:15:15.687Z,86.07
2023-08-19T02:15:48.275Z,86.07
2023-08-19T02:16:20.827Z,86.18
2023-08-19T02:16:53.349Z,86.28
2023-08-19T02:17:25.885Z,86.25
2023-08-19T02:17:59.563Z,86.24
2023-08-19T02:18:32.358Z,86.19
2023-08-19T02:19:05.382Z,86.19
2023-08-19T02:19:37.893Z,86.19
2023-08-19T02:20:10.929Z,86.18
2023-08-19T02:20:47.623Z,86.20
2023-08-19T02:21:20.169Z,86.22
2023-08-19T02:21:53.096Z,86.20
2023-08-19T02:22:25.624Z,85.98
2023-08-19T02:23:00.373Z,86.06
2023-08-19T02:23:32.869Z,86.27
2023-08-19T02:24:05.757Z,86.23
2023-08-19T02:24:38.276Z,86.19
2023-08-19T02:25:10.903Z,86.14
2023-08-19T02:25:43.398Z,86.15
2023-08-19T02:26:15.877Z,86.18
2023-08-19T02:26:48.415Z,86.21
2023-08-19T02:27:20.928Z,86.25
2023-08-19T02:27:53.466Z,86.24
2023-08-19T02:28:25.997Z,86.09
2023-08-19T02:28:58.495Z,86.17
2023-08-19T02:29:31.015Z,86.23
2023-08-19T02:30:03.834Z,86.23
2023-08-19T02:30:36.352Z,86.21
2023-08-19T02:31:08.929Z,86.23
2023-08-19T02:31:42.042Z,86.31
2023-08-19T02:32:14.545Z,86.34
2023-08-19T02:32:47.083Z,86.40
2023-08-19T02:33:19.593Z,86.42
2023-08-19T02:33:52.151Z,86.32
2023-08-19T02:34:24.693Z,86.20
2023-08-19T02:34:57.189Z,86.23
2023-08-19T02:35:29.709Z,86.21
2023-08-19T02:36:02.350Z,86.29
2023-08-19T02:36:34.885Z,86.27
2023-08-19T02:37:07.436Z,86.23
2023-08-19T02:37:40.110Z,86.11
2023-08-19T02:38:12.656Z,85.92
2023-08-19T02:38:45.186Z,86.16
2023-08-19T02:39:17.747Z,86.31
2023-08-19T02:39:50.253Z,86.30
2023-08-19T02:40:22.804Z,86.21
2023-08-19T02:40:55.361Z,86.13
2023-08-19T02:41:27.843Z,86.12
2023-08-19T02:42:00.431Z,86.16
2023-08-19T02:42:33.002Z,86.24
2023-08-19T02:43:05.530Z,86.28
2023-08-19T02:43:38.055Z,86.31
2023-08-19T02:44:10.571Z,86.28
2023-08-19T02:44:44.428Z,86.14
2023-08-19T02:45:16.934Z,86.13
2023-08-19T02:45:49.877Z,86.15
2023-08-19T02:46:22.444Z,86.12
2023-08-19T02:46:55.038Z,86.13
2023-08-19T02:47:27.628Z,86.04
2023-08-19T02:48:00.184Z,86.04
2023-08-19T02:48:32.798Z,85.99
2023-08-19T02:49:05.420Z,85.95
2023-08-19T02:49:37.967Z,85.91
2023-08-19T02:50:10.775Z,85.99
2023-08-19T02:50:43.615Z,86.10
2023-08-19T02:51:16.151Z,86.06
2023-08-19T02:51:48.649Z,86.03
2023-08-19T02:52:21.166Z,86.04
2023-08-19T02:52:53.667Z,86.10
2023-08-19T02:53:26.198Z,86.05
2023-08-19T02:53:58.742Z,86.09
2023-08-19T02:54:31.225Z,86.10
2023-08-19T02:55:03.868Z,86.09
2023-08-19T02:55:42.096Z,86.09
2023-08-19T02:56:14.607Z,86.06
2023-08-19T02:56:47.122Z,86.06
2023-08-19T02:57:19.692Z,86.06
2023-08-19T02:57:52.222Z,86.01
2023-08-19T02:58:26.169Z,86.03
2023-08-19T02:58:58.695Z,86.04
2023-08-19T02:59:31.187Z,86.09
2023-08-19T03:00:03.970Z,86.05
2023-08-19T03:00:39.590Z,86.11
2023-08-19T03:01:14.566Z,86.06
2023-08-19T03:01:47.163Z,85.97
2023-08-19T03:02:19.896Z,85.96
2023-08-19T03:02:53.836Z,85.92
2023-08-19T03:03:28.561Z,85.91
2023-08-19T03:04:01.670Z,85.94
2023-08-19T03:04:34.216Z,85.89
2023-08-19T03:05:06.967Z,85.86
2023-08-19T03:05:40.288Z,85.87
2023-08-19T03:06:12.880Z,85.85
2023-08-19T03:06:45.480Z,85.82
2023-08-19T03:07:18.018Z,85.91
2023-08-19T03:07:50.552Z,85.93
2023-08-19T03:08:23.090Z,86.00
2023-08-19T03:08:55.582Z,85.97
2023-08-19T03:09:28.079Z,85.99
2023-08-19T03:10:00.575Z,85.92
2023-08-19T03:10:34.640Z,85.89
2023-08-19T03:11:07.182Z,85.91
2023-08-19T03:11:42.714Z,85.95
2023-08-19T03:12:15.442Z,85.85
2023-08-19T03:12:47.985Z,85.71
2023-08-19T03:13:20.539Z,85.82
2023-08-19T03:13:53.059Z,85.95
2023-08-19T03:14:25.581Z,86.10
2023-08-19T03:14:58.107Z,86.16
2023-08-19T03:15:31.957Z,86.11
2023-08-19T03:16:05.763Z,86.20
2023-08-19T03:16:38.331Z,86.19
2023-08-19T03:17:10.837Z,86.16
2023-08-19T03:17:43.592Z,86.16
2023-08-19T03:18:16.132Z,86.15
2023-08-19T03:18:48.660Z,86.19
2023-08-19T03:19:21.222Z,86.24
2023-08-19T03:19:53.862Z,86.26
2023-08-19T03:20:26.566Z,86.17
2023-08-19T03:21:00.192Z,86.15
2023-08-19T03:21:32.742Z,86.14
2023-08-19T03:22:05.294Z,86.19
2023-08-19T03:22:39.524Z,86.16
2023-08-19T03:23:12.084Z,86.19
2023-08-19T03:23:44.608Z,86.18
2023-08-19T03:24:17.177Z,86.08
2023-08-19T03:24:49.676Z,86.07
2023-08-19T03:25:22.211Z,86.20
2023-08-19T03:25:55.920Z,86.33
2023-08-19T03:26:28.448Z,86.38
2023-08-19T03:27:00.984Z,86.38
2023-08-19T03:27:33.727Z,86.28
2023-08-19T03:28:06.614Z,86.26
2023-08-19T03:28:39.131Z,86.22
2023-08-19T03:29:11.652Z,86.22
2023-08-19T03:29:44.152Z,86.22
2023-08-19T03:30:16.670Z,86.31
2023-08-19T03:30:49.342Z,86.34
2023-08-19T03:31:21.842Z,86.28
2023-08-19T03:31:54.342Z,86.25
2023-08-19T03:32:26.910Z,86.25
2023-08-19T03:32:59.486Z,86.28
2023-08-19T03:33:32.151Z,86.27
2023-08-19T03:34:04.716Z,86.28
2023-08-19T03:34:37.289Z,86.33
2023-08-19T03:35:10.070Z,86.30
2023-08-19T03:35:42.665Z,86.32
2023-08-19T03:36:15.151Z,86.17
2023-08-19T03:36:48.460Z,86.20
2023-08-19T03:37:20.991Z,86.05
2023-08-19T03:37:53.524Z,85.92
2023-08-19T03:38:26.024Z,85.78
2023-08-19T03:38:58.714Z,85.80
2023-08-19T03:39:31.232Z,85.86
2023-08-19T03:40:04.463Z,85.90
2023-08-19T03:40:37.583Z,85.88
2023-08-19T03:41:10.119Z,85.96
2023-08-19T03:41:42.651Z,86.00
2023-08-19T03:42:15.149Z,85.99
2023-08-19T03:42:47.674Z,85.91
2023-08-19T03:43:20.206Z,85.95
2023-08-19T03:43:52.808Z,86.07
2023-08-19T03:44:25.345Z,86.11
2023-08-19T03:44:57.914Z,86.15
2023-08-19T03:45:31.496Z,86.20
2023-08-19T03:46:04.125Z,86.14
2023-08-19T03:46:36.709Z,86.12
2023-08-19T03:47:13.540Z,86.24
2023-08-19T03:47:46.252Z,86.18
2023-08-19T03:48:18.821Z,86.22
2023-08-19T03:48:51.326Z,86.18
2023-08-19T03:49:23.816Z,86.17
2023-08-19T03:49:56.351Z,86.06
2023-08-19T03:50:28.862Z,85.84
2023-08-19T03:51:01.373Z,85.97
2023-08-19T03:51:33.911Z,86.11
2023-08-19T03:52:07.507Z,86.11
2023-08-19T03:52:40.065Z,86.07
2023-08-19T03:53:12.549Z,86.15
2023-08-19T03:53:45.082Z,86.11
2023-08-19T03:54:17.585Z,86.07
2023-08-19T03:54:50.134Z,86.09
2023-08-19T03:55:22.671Z,86.14
2023-08-19T03:55:55.237Z,86.15
2023-08-19T03:56:27.728Z,86.15
2023-08-19T03:57:00.858Z,86.16
2023-08-19T03:57:33.664Z,86.19
2023-08-19T03:58:06.396Z,86.13
2023-08-19T03:58:38.893Z,86.11
2023-08-19T03:59:11.429Z,86.01
2023-08-19T03:59:44.016Z,85.89
2023-08-19T04:00:16.575Z,85.89
2023-08-19T04:00:49.076Z,85.92
2023-08-19T04:01:21.638Z,85.90
2023-08-19T04:01:54.153Z,85.93
2023-08-19T04:02:26.810Z,85.98
2023-08-19T04:02:59.432Z,86.08
2023-08-19T04:03:31.970Z,86.12
2023-08-19T04:04:04.754Z,86.08
2023-08-19T04:04:37.512Z,86.03
2023-08-19T04:05:11.933Z,86.05
2023-08-19T04:05:44.467Z,86.07
2023-08-19T04:06:16.996Z,86.15
2023-08-19T04:06:49.607Z,86.20
2023-08-19T04:07:22.112Z,86.24
2023-08-19T04:07:54.609Z,86.35
2023-08-19T04:08:27.544Z,86.40
2023-08-19T04:09:00.259Z,86.36
2023-08-19T04:09:32.791Z,86.36
2023-08-19T04:10:05.692Z,86.32
2023-08-19T04:10:38.330Z,86.33
2023-08-19T04:11:10.870Z,86.39
2023-08-19T04:11:43.421Z,86.46
2023-08-19T04:12:16.925Z,86.45
2023-08-19T04:12:49.420Z,86.48
2023-08-19T04:13:22.020Z,86.51
2023-08-19T04:13:54.566Z,86.50
2023-08-19T04:14:27.078Z,86.57
2023-08-19T04:14:59.608Z,86.61
2023-08-19T04:15:33.172Z,86.56
2023-08-19T04:16:07.683Z,86.61
2023-08-19T04:16:40.447Z,86.55
2023-08-19T04:17:13.073Z,86.80
2023-08-19T04:17:45.709Z,86.85
2023-08-19T04:18:18.270Z,86.82
2023-08-19T04:18:51.711Z,86.70
2023-08-19T04:19:24.237Z,86.61
2023-08-19T04:19:56.772Z,86.63
2023-08-19T04:20:29.330Z,86.62
2023-08-19T04:21:05.950Z,86.62
2023-08-19T04:21:38.487Z,86.82
2023-08-19T04:22:15.675Z,86.82
2023-08-19T04:22:50.787Z,86.82
2023-08-19T04:23:23.433Z,86.86
2023-08-19T04:23:55.958Z,86.85
2023-08-19T04:24:28.921Z,86.87
2023-08-19T04:25:01.448Z,86.97
2023-08-19T04:25:34.014Z,87.02
2023-08-19T04:26:06.564Z,87.01
2023-08-19T04:26:39.602Z,86.86
2023-08-19T04:27:12.094Z,86.74
2023-08-19T04:27:44.630Z,86.72
2023-08-19T04:28:17.152Z,86.86
2023-08-19T04:28:49.777Z,86.82
2023-08-19T04:29:22.269Z,86.78
2023-08-19T04:29:54.799Z,86.72
2023-08-19T04:30:27.343Z,86.70
2023-08-19T04:31:08.214Z,86.78
2023-08-19T04:31:40.804Z,86.94
2023-08-19T04:32:14.369Z,86.93
2023-08-19T04:32:47.753Z,86.96
2023-08-19T04:33:20.399Z,86.99
2023-08-19T04:33:52.940Z,87.03
2023-08-19T04:34:25.595Z,87.03
2023-08-19T04:34:58.112Z,86.94
2023-08-19T04:35:30.608Z,86.86
2023-08-19T04:36:03.756Z,86.72
2023-08-19T04:36:36.278Z,86.69
2023-08-19T04:37:10.225Z,86.74
2023-08-19T04:37:42.885Z,86.76
2023-08-19T04:38:16.541Z,86.64
2023-08-19T04:38:49.101Z,86.53
2023-08-19T04:39:22.070Z,86.36
2023-08-19T04:39:54.912Z,86.22
2023-08-19T04:40:27.406Z,86.50
2023-08-19T04:41:01.346Z,86.47
2023-08-19T04:41:33.846Z,86.26
2023-08-19T04:42:06.515Z,86.24
2023-08-19T04:42:39.851Z,86.15
2023-08-19T04:43:12.660Z,86.05
2023-08-19T04:43:45.247Z,86.14
2023-08-19T04:44:18.256Z,86.25
2023-08-19T04:44:50.764Z,86.02
2023-08-19T04:45:23.294Z,86.01
2023-08-19T04:45:55.917Z,86.12
2023-08-19T04:46:28.472Z,86.05
2023-08-19T04:47:01.055Z,86.15
2023-08-19T04:47:34.996Z,86.11
2023-08-19T04:48:08.299Z,85.83
2023-08-19T04:48:40.844Z,85.74
2023-08-19T04:49:13.394Z,85.71
2023-08-19T04:49:45.904Z,85.50
2023-08-19T04:50:18.551Z,85.34
2023-08-19T04:50:51.050Z,85.68
2023-08-19T04:51:23.642Z,85.85
2023-08-19T04:51:56.177Z,85.63
2023-08-19T04:52:28.704Z,85.72
2023-08-19T04:53:01.236Z,85.73
2023-08-19T04:53:33.790Z,85.70
2023-08-19T04:54:06.649Z,85.58
2023-08-19T04:54:39.156Z,85.51
2023-08-19T04:55:11.695Z,85.40
2023-08-19T04:55:44.195Z,85.38
2023-08-19T04:56:18.371Z,85.36
2023-08-19T04:56:51.003Z,85.12
2023-08-19T04:57:23.490Z,85.23
2023-08-19T04:57:56.027Z,85.45
2023-08-19T04:58:28.532Z,85.50
2023-08-19T04:59:01.672Z,85.37
2023-08-19T04:59:34.220Z,85.31
2023-08-19T05:00:09.714Z,85.47
2023-08-19T05:00:42.244Z,85.53
2023-08-19T05:01:15.057Z,85.42
2023-08-19T05:01:47.652Z,85.47
2023-08-19T05:02:20.214Z,85.43
2023-08-19T05:02:52.794Z,85.32
2023-08-19T05:03:25.334Z,85.12
2023-08-19T05:03:57.885Z,85.21
2023-08-19T05:04:30.409Z,85.25
2023-08-19T05:05:04.554Z,85.23
2023-08-19T05:05:37.060Z,85.39
2023-08-19T05:06:09.599Z,85.48
2023-08-19T05:06:42.127Z,85.53
2023-08-19T05:07:14.671Z,85.48
2023-08-19T05:07:47.285Z,85.44
2023-08-19T05:08:19.787Z,85.36
2023-08-19T05:08:52.286Z,85.35
2023-08-19T05:09:24.813Z,85.35
2023-08-19T05:09:57.433Z,85.34
2023-08-19T05:10:29.919Z,85.23
2023-08-19T05:11:02.478Z,85.24
2023-08-19T05:11:34.980Z,85.35
2023-08-19T05:12:07.939Z,85.39
2023-08-19T05:12:40.827Z,85.50
2023-08-19T05:13:13.401Z,85.51
2023-08-19T05:13:45.939Z,85.34
2023-08-19T05:14:18.828Z,85.33
2023-08-19T05:14:51.357Z,85.53
2023-08-19T05:15:23.883Z,85.61
2023-08-19T05:15:56.381Z,85.59
2023-08-19T05:16:29.011Z,85.57
2023-08-19T05:17:01.640Z,85.52
2023-08-19T05:17:34.484Z,85.36
2023-08-19T05:18:07.278Z,85.02
2023-08-19T05:18:39.817Z,85.32
2023-08-19T05:19:20.656Z,85.20
2023-08-19T05:19:55.701Z,85.61
2023-08-19T05:20:28.504Z,85.83
2023-08-19T05:21:01.019Z,85.58
2023-08-19T05:21:33.561Z,85.50
2023-08-19T05:22:06.106Z,85.54
2023-08-19T05:22:38.645Z,85.27
2023-08-19T05:23:11.170Z,84.93
2023-08-19T05:23:43.713Z,84.73
2023-08-19T05:24:16.872Z,84.72
2023-08-19T05:24:50.510Z,84.64
2023-08-19T05:25:23.037Z,84.60
2023-08-19T05:25:55.572Z,84.59
2023-08-19T05:26:28.123Z,84.73
2023-08-19T05:27:01.461Z,84.57
2023-08-19T05:27:34.216Z,84.34
2023-08-19T05:28:07.099Z,84.41
2023-08-19T05:28:39.681Z,84.30
2023-08-19T05:29:13.383Z,84.09
2023-08-19T05:29:45.874Z,84.13
2023-08-19T05:30:18.361Z,84.30
2023-08-19T05:30:50.889Z,84.77
2023-08-19T05:31:23.450Z,84.77
2023-08-19T05:31:56.834Z,85.15
2023-08-19T05:32:29.333Z,85.40
2023-08-19T05:33:01.921Z,84.18
2023-08-19T05:33:34.466Z,83.56
2023-08-19T05:34:10.069Z,83.67
2023-08-19T05:34:42.581Z,84.03
2023-08-19T05:35:15.294Z,84.39
2023-08-19T05:35:47.877Z,84.84
2023-08-19T05:36:20.421Z,84.89
2023-08-19T05:36:52.937Z,84.24
2023-08-19T05:37:25.487Z,83.83
2023-08-19T05:37:57.994Z,83.81
2023-08-19T05:38:30.522Z,82.77
2023-08-19T05:39:03.421Z,82.18
2023-08-19T05:39:35.920Z,81.62
2023-08-19T05:40:08.945Z,81.53
2023-08-19T05:40:41.487Z,81.58
2023-08-19T05:41:14.020Z,81.53
2023-08-19T05:41:46.552Z,81.48
2023-08-19T05:42:19.401Z,81.49
2023-08-19T05:42:51.951Z,81.59
2023-08-19T05:43:24.505Z,81.40
2023-08-19T05:43:57.120Z,80.37
2023-08-19T05:44:29.610Z,79.78
2023-08-19T05:45:02.138Z,79.76
2023-08-19T05:45:35.056Z,79.63
2023-08-19T05:46:08.698Z,79.70
2023-08-19T05:46:41.368Z,79.66
2023-08-19T05:47:13.920Z,79.58
2023-08-19T05:47:46.419Z,79.67
2023-08-19T05:48:18.910Z,79.85
2023-08-19T05:48:51.418Z,80.08
2023-08-19T05:49:24.062Z,80.07
2023-08-19T05:49:56.573Z,79.97
2023-08-19T05:50:29.197Z,80.13
2023-08-19T05:51:02.302Z,80.17
2023-08-19T05:51:35.404Z,80.09
2023-08-19T05:52:07.984Z,80.14
2023-08-19T05:52:40.572Z,80.36
2023-08-19T05:53:13.122Z,80.37
2023-08-19T05:53:45.666Z,80.50
2023-08-19T05:54:18.154Z,80.56
2023-08-19T05:54:51.363Z,80.57
2023-08-19T05:55:23.862Z,80.54
2023-08-19T05:55:56.386Z,80.66
2023-08-19T05:56:28.910Z,80.75
2023-08-19T05:57:01.436Z,80.77
2023-08-19T05:57:34.364Z,80.93
2023-08-19T05:58:07.333Z,81.10
2023-08-19T05:58:39.854Z,81.15
2023-08-19T05:59:12.370Z,81.19
2023-08-19T05:59:45.031Z,81.28
2023-08-19T06:00:17.754Z,81.31
2023-08-19T06:00:57.863Z,81.44
2023-08-19T06:01:30.499Z,81.62
2023-08-19T06:02:03.215Z,81.72
2023-08-19T06:02:35.762Z,81.63
2023-08-19T06:03:08.330Z,81.82
2023-08-19T06:03:40.960Z,81.96
2023-08-19T06:04:13.511Z,82.07
2023-08-19T06:04:46.021Z,82.07
2023-08-19T06:05:18.554Z,81.89
2023-08-19T06:05:51.141Z,81.99
2023-08-19T06:06:23.670Z,82.06
2023-08-19T06:06:56.162Z,82.05
2023-08-19T06:07:28.685Z,82.11
2023-08-19T06:08:01.177Z,82.25
2023-08-19T06:08:34.703Z,82.34
2023-08-19T06:09:07.206Z,82.50
2023-08-19T06:09:39.702Z,82.38
2023-08-19T06:10:12.244Z,82.38
2023-08-19T06:10:47.813Z,82.26
2023-08-19T06:11:20.301Z,82.21
2023-08-19T06:11:53.923Z,82.11
2023-08-19T06:12:26.414Z,82.19
2023-08-19T06:12:58.976Z,82.23
2023-08-19T06:13:31.626Z,82.25
2023-08-19T06:14:04.296Z,82.04
2023-08-19T06:14:36.817Z,82.04
2023-08-19T06:15:09.669Z,81.92
2023-08-19T06:15:42.194Z,82.04
2023-08-19T06:16:14.781Z,81.99
2023-08-19T06:16:48.075Z,81.83
2023-08-19T06:17:20.571Z,81.81
2023-08-19T06:17:53.080Z,81.84
2023-08-19T06:18:26.218Z,81.76
2023-08-19T06:18:58.799Z,81.68
2023-08-19T06:19:31.294Z,81.59
2023-08-19T06:20:04.209Z,81.67
2023-08-19T06:20:36.754Z,81.70
2023-08-19T06:21:09.291Z,81.52
2023-08-19T06:21:41.872Z,81.01
2023-08-19T06:22:14.404Z,80.35
2023-08-19T06:22:46.938Z,80.07
2023-08-19T06:23:20.490Z,80.16
2023-08-19T06:23:52.980Z,80.32
2023-08-19T06:24:25.506Z,80.19
2023-08-19T06:24:58.045Z,80.28
2023-08-19T06:25:32.803Z,80.37
2023-08-19T06:26:06.402Z,80.43
2023-08-19T06:26:38.897Z,80.14
2023-08-19T06:27:11.398Z,80.20
2023-08-19T06:27:43.912Z,80.28
2023-08-19T06:28:17.092Z,80.35
2023-08-19T06:28:50.412Z,80.14
2023-08-19T06:29:22.882Z,80.24
2023-08-19T06:29:55.393Z,80.34
2023-08-19T06:30:27.864Z,80.28
2023-08-19T06:31:00.379Z,79.84
2023-08-19T06:31:33.221Z,80.11
2023-08-19T06:32:06.139Z,80.22
2023-08-19T06:32:38.874Z,80.53
2023-08-19T06:33:12.391Z,80.79
2023-08-19T06:33:45.490Z,80.66
2023-08-19T06:34:18.133Z,80.61
2023-08-19T06:34:50.790Z,80.93
2023-08-19T06:35:23.449Z,81.09
2023-08-19T06:35:58.811Z,80.74
2023-08-19T06:36:34.744Z,80.15
2023-08-19T06:37:12.093Z,80.47
2023-08-19T06:37:49.808Z,80.77
2023-08-19T06:38:27.533Z,81.01
2023-08-19T06:39:07.845Z,81.53
2023-08-19T06:39:46.736Z,81.82
2023-08-19T06:40:22.027Z,82.70
2023-08-19T06:41:07.909Z,83.53
2023-08-19T06:41:42.556Z,83.82
2023-08-19T06:42:17.963Z,84.86
2023-08-19T06:42:51.001Z,85.24
2023-08-19T06:43:27.802Z,84.75
2023-08-19T06:44:02.688Z,85.14
2023-08-19T06:44:38.373Z,85.68
2023-08-19T06:45:11.298Z,86.09
2023-08-19T06:45:44.378Z,86.58
2023-08-19T06:46:17.452Z,86.19
2023-08-19T06:46:51.296Z,86.76
2023-08-19T06:47:25.153Z,87.32
2023-08-19T06:47:59.280Z,87.32
2023-08-19T06:48:33.349Z,88.62
2023-08-19T06:49:06.148Z,88.97
2023-08-19T06:49:38.936Z,89.43
2023-08-19T06:50:12.492Z,89.31
2023-08-19T06:50:45.288Z,90.53
2023-08-19T06:51:18.008Z,90.79
2023-08-19T06:51:50.790Z,90.78
2023-08-19T06:52:24.019Z,90.85
2023-08-19T06:52:57.401Z,91.05
2023-08-19T06:53:30.720Z,91.51
2023-08-19T06:54:03.476Z,92.21
2023-08-19T06:54:36.268Z,91.99
2023-08-19T06:55:09.497Z,92.29
2023-08-19T06:56:06.572Z,93.31
2023-08-19T06:56:50.761Z,93.78
2023-08-19T06:57:30.397Z,94.56
2023-08-19T06:58:07.441Z,94.48
2023-08-19T06:58:44.959Z,94.88
2023-08-19T06:59:28.132Z,95.05
2023-08-19T07:00:13.380Z,95.45
2023-08-19T07:00:50.559Z,95.72
2023-08-19T07:01:31.326Z,95.41
2023-08-19T07:02:05.572Z,95.42
2023-08-19T07:02:39.439Z,95.61
2023-08-19T07:03:15.323Z,95.74
2023-08-19T07:03:48.418Z,95.89
2023-08-19T07:04:24.157Z,96.26
2023-08-19T07:05:00.532Z,96.56
2023-08-19T07:05:35.696Z,96.37
2023-08-19T07:06:08.908Z,96.58
2023-08-19T07:06:42.833Z,96.98
2023-08-19T07:07:22.652Z,97.49
2023-08-19T07:07:58.896Z,97.74
2023-08-19T07:08:34.590Z,98.36
2023-08-19T07:09:09.928Z,98.44
2023-08-19T07:09:42.652Z,98.68
2023-08-19T07:10:20.980Z,98.80
2023-08-19T07:10:53.792Z,99.17
2023-08-19T07:11:26.453Z,99.25
2023-08-19T07:11:59.655Z,99.42
2023-08-19T07:12:33.620Z,99.59